Météo Nord-Pas-de-Calais   La météo au plus près de chez vous

Station météorologique

Observations météo à Trappes (78621)

78621001 167 m Dernier relevé à 05:42
16.6°C
Humidité 85 % Vent 16.2 km/h 1013.7 hPa

Journée consultée

Lundi 31 Août 2026

Synthèse de la journée

Périodes de référence en UTC

Température maximale

23.3°C

à 20:00

06h 06h

Température minimale

16.4°C

à 05:18

18h 18h

Rafale maximale

37 km/h

à 02:42

00h 00h

Précipitations

0 mm

Cumul quotidien

06h 06h

Ensoleillement

0h 0 mins

Durée quotidienne

00h 00h

Graphiques de la journée

Heure locale Réduire

Données détaillées

Relevés météo

Pas de 6 minutes Afficher les relevés infra-horaires
Relevés météo détaillés à Trappes pour le Lundi 31 Août 2026
Heure Température °C Point de rosée °C Humidité % Vent moyen (raf.), km/h Précipitations mm Température à 10 cm °C Température à 20 cm °C Température à 50 cm °C Température à 100 cm °C Visibilité m Hauteur neige cm Ensoleillement min Rayonnement global W/m² Pression hPa
05:42 16.6 °C 13.9 °C 84 % 15 km/h (27 km/h) 0 mm0 mm 18.5 °C 19.3 °C 19.6 °C 19 °C 20000 m 0 cm 0 min 0 W/m² 1013.7 hPa
05:36 16.5 °C 13.8 °C 84 % 15 km/h (27 km/h) 0 mm0 mm 18.6 °C 19.3 °C 19.6 °C 19 °C 20000 m 0 cm 0 min 0 W/m² 1013.8 hPa
05:30 16.4 °C 13.9 °C 85 % 16 km/h (27 km/h) 0 mm0 mm 18.6 °C 19.3 °C 19.5 °C 18.9 °C 20000 m 0 cm 0 min 0 W/m² 1013.9 hPa
05:24 16.4 °C 13.9 °C 85 % 15 km/h (25 km/h) 0 mm0 mm 18.6 °C 19.3 °C 19.6 °C 19 °C 20000 m 0 cm 0 min 0 W/m² 1013.9 hPa
05:18 16.4 °C 13.9 °C 85 % 16 km/h (27 km/h) 0 mm0 mm 18.6 °C 19.3 °C 19.6 °C 19 °C 20000 m 0 cm 0 min 0 W/m² 1013.9 hPa
05:12 16.5 °C 14 °C 85 % 17 km/h (27 km/h) 0 mm0 mm 18.6 °C 19.3 °C 19.6 °C 19 °C 20000 m 0 cm 0 min 0 W/m² 1013.9 hPa
05:06 16.5 °C 14 °C 85 % 15 km/h (27 km/h) 0 mm0 mm 18.6 °C 19.4 °C 19.6 °C 19 °C 20000 m 0 cm 0 min 0 W/m² 1013.8 hPa
05:00 16.5 °C 14.1 °C 86 % 16 km/h (27 km/h) 0 mm0 mm 18.7 °C 19.4 °C 19.6 °C 19 °C 20000 m 0 cm 0 min 0 W/m² 1013.9 hPa
04:54 16.5 °C 14.1 °C 86 % 17 km/h (28 km/h) 0 mm0 mm 18.7 °C 19.4 °C 19.6 °C 19 °C 20000 m 0 cm 0 min 0 W/m² 1013.8 hPa
04:48 16.5 °C 14 °C 85 % 17 km/h (28 km/h) 0 mm0 mm 18.7 °C 19.4 °C 19.6 °C 19 °C 20000 m 0 cm 0 min 0 W/m² 1013.8 hPa
04:42 16.5 °C 14 °C 85 % 16 km/h (27 km/h) 0 mm0 mm 18.7 °C 19.4 °C 19.6 °C 19 °C 20000 m 0 cm 0 min 0 W/m² 1013.7 hPa
04:36 16.5 °C 14 °C 85 % 17 km/h (31 km/h) 0 mm0 mm 18.7 °C 19.4 °C 19.6 °C 19 °C 20000 m 0 cm 0 min 0 W/m² 1013.6 hPa
04:30 16.6 °C 14.1 °C 85 % 18 km/h (34 km/h) 0 mm0 mm 18.7 °C 19.4 °C 19.6 °C 19 °C 20000 m 0 cm 0 min 0 W/m² 1013.5 hPa
04:24 16.5 °C 14.1 °C 86 % 16 km/h (34 km/h) 0 mm0 mm 18.8 °C 19.5 °C 19.6 °C 19 °C 20000 m 0 cm 0 min 0 W/m² 1013.5 hPa
04:18 16.5 °C 14 °C 85 % 15 km/h (25 km/h) 0 mm0 mm 18.8 °C 19.5 °C 19.6 °C 19 °C 20000 m 0 cm 0 min 0 W/m² 1013.5 hPa
04:12 16.5 °C 14 °C 85 % 16 km/h (24 km/h) 0 mm0 mm 18.8 °C 19.5 °C 19.6 °C 19 °C 20000 m 0 cm 0 min 0 W/m² 1013.4 hPa
04:06 16.5 °C 14 °C 85 % 16 km/h (30 km/h) 0 mm0 mm 18.8 °C 19.5 °C 19.6 °C 19 °C 20000 m 0 cm 0 min 0 W/m² 1013.4 hPa
04:00 16.6 °C 14.1 °C 85 % 18 km/h (33 km/h) 0 mm0 mm 18.9 °C 19.5 °C 19.6 °C 19 °C 20000 m 0 cm 0 min 0 W/m² 1013.4 hPa
03:54 16.5 °C 14 °C 85 % 17 km/h (33 km/h) 0 mm0 mm 18.8 °C 19.5 °C 19.6 °C 19 °C 20000 m 0 cm 0 min 0 W/m² 1013.4 hPa
03:48 16.5 °C 14 °C 85 % 16 km/h (26 km/h) 0 mm0 mm 18.9 °C 19.6 °C 19.6 °C 19 °C 20000 m 0 cm 0 min 0 W/m² 1013.4 hPa
03:42 16.6 °C 13.9 °C 84 % 16 km/h (26 km/h) 0 mm0 mm 18.9 °C 19.6 °C 19.6 °C 19 °C 20000 m 0 cm 0 min 0 W/m² 1013.5 hPa
03:36 16.5 °C 13.8 °C 84 % 17 km/h (28 km/h) 0 mm0 mm 18.9 °C 19.6 °C 19.6 °C 19 °C 20000 m 0 cm 0 min 0 W/m² 1013.5 hPa
03:30 16.5 °C 13.8 °C 84 % 17 km/h (29 km/h) 0 mm0 mm 19 °C 19.6 °C 19.6 °C 19 °C 20000 m 0 cm 0 min 0 W/m² 1013.5 hPa
03:24 16.5 °C 13.8 °C 84 % 15 km/h (27 km/h) 0 mm0 mm 18.9 °C 19.6 °C 19.6 °C 19 °C 20000 m 0 cm 0 min 0 W/m² 1013.5 hPa
03:18 16.5 °C 13.6 °C 83 % 16 km/h (29 km/h) 0 mm0 mm 19 °C 19.6 °C 19.6 °C 19 °C 20000 m 0 cm 0 min 0 W/m² 1013.5 hPa
03:12 16.6 °C 13.7 °C 83 % 16 km/h (29 km/h) 0 mm0 mm 19 °C 19.6 °C 19.6 °C 19 °C 20000 m 0 cm 0 min 0 W/m² 1013.5 hPa
03:06 16.6 °C 13.7 °C 83 % 15 km/h (26 km/h) 0 mm0 mm 19 °C 19.6 °C 19.6 °C 19 °C 20000 m 0 cm 0 min 0 W/m² 1013.5 hPa
03:00 16.6 °C 13.5 °C 82 % 14 km/h (27 km/h) 0 mm0 mm 19 °C 19.7 °C 19.6 °C 19 °C 20000 m 0 cm 0 min 0 W/m² 1013.4 hPa
02:54 16.6 °C 13.3 °C 81 % 16 km/h (30 km/h) 0 mm0 mm 19 °C 19.7 °C 19.5 °C 19 °C 20000 m 0 cm 0 min 0 W/m² 1013.5 hPa
02:48 16.7 °C 13.2 °C 80 % 17 km/h (37 km/h) 0 mm0 mm 19.1 °C 19.7 °C 19.6 °C 19 °C 20000 m 0 cm 0 min 0 W/m² 1013.5 hPa
02:42 16.8 °C 13.3 °C 80 % 17 km/h (37 km/h) 0 mm0 mm 19.1 °C 19.7 °C 19.6 °C 19 °C 20000 m 0 cm 0 min 0 W/m² 1013.4 hPa
02:36 16.7 °C 13 °C 79 % 14 km/h (23 km/h) 0 mm0 mm 19.1 °C 19.7 °C 19.6 °C 19 °C 20000 m 0 cm 0 min 0 W/m² 1013.4 hPa
02:30 16.8 °C 12.9 °C 78 % 14 km/h (24 km/h) 0 mm0 mm 19.1 °C 19.7 °C 19.6 °C 19 °C 20000 m 0 cm 0 min 0 W/m² 1013.4 hPa
02:24 16.8 °C 12.7 °C 77 % 15 km/h (24 km/h) 0 mm0 mm 19.2 °C 19.8 °C 19.6 °C 19 °C 20000 m 0 cm 0 min 0 W/m² 1013.4 hPa
02:18 16.8 °C 12.7 °C 77 % 15 km/h (31 km/h) 0 mm0 mm 19.2 °C 19.8 °C 19.6 °C 19 °C 20000 m 0 cm 0 min 0 W/m² 1013.4 hPa
02:12 16.9 °C 12.8 °C 77 % 15 km/h (31 km/h) 0 mm0 mm 19.2 °C 19.8 °C 19.6 °C 19 °C 20000 m 0 cm 0 min 0 W/m² 1013.4 hPa
02:06 16.9 °C 12.8 °C 77 % 14 km/h (24 km/h) 0 mm0 mm 19.2 °C 19.8 °C 19.6 °C 19 °C 20000 m 0 cm 0 min 0 W/m² 1013.4 hPa
02:00 16.9 °C 12.8 °C 77 % 14 km/h (25 km/h) 0 mm0 mm 19.3 °C 19.8 °C 19.6 °C 19 °C 20000 m 0 cm 0 min 0 W/m² 1013.4 hPa
01:54 16.9 °C 12.8 °C 77 % 15 km/h (23 km/h) 0 mm0 mm 19.3 °C 19.8 °C 19.6 °C 19 °C 20000 m 0 cm 0 min 0 W/m² 1013.5 hPa
01:48 16.9 °C 12.8 °C 77 % 14 km/h (23 km/h) 0 mm0 mm 19.3 °C 19.8 °C 19.6 °C 19 °C 20000 m 0 cm 0 min 0 W/m² 1013.5 hPa
01:42 16.9 °C 13 °C 78 % 15 km/h (27 km/h) 0 mm0 mm 19.3 °C 19.9 °C 19.6 °C 19 °C 20000 m 0 cm 0 min 0 W/m² 1013.5 hPa
01:36 16.9 °C 13.2 °C 79 % 13 km/h (25 km/h) 0 mm0 mm 19.3 °C 19.9 °C 19.6 °C 19 °C 20000 m 0 cm 0 min 0 W/m² 1013.6 hPa
01:30 16.9 °C 13.4 °C 80 % 12 km/h (22 km/h) 0 mm0 mm 19.4 °C 19.9 °C 19.6 °C 19 °C 20000 m 0 cm 0 min 0 W/m² 1013.6 hPa
01:24 16.9 °C 13.4 °C 80 % 12 km/h (22 km/h) 0 mm0 mm 19.4 °C 19.9 °C 19.6 °C 19 °C 20000 m 0 cm 0 min 0 W/m² 1013.5 hPa
01:18 17 °C 13.7 °C 81 % 12 km/h (22 km/h) 0 mm0 mm 19.5 °C 19.9 °C 19.6 °C 19 °C 20000 m 0 cm 0 min 0 W/m² 1013.5 hPa
01:12 17 °C 13.7 °C 81 % 12 km/h (21 km/h) 0 mm0 mm 19.5 °C 19.9 °C 19.6 °C 19 °C 20000 m 0 cm 0 min 0 W/m² 1013.5 hPa
01:06 17.1 °C 13.8 °C 81 % 13 km/h (24 km/h) 0 mm0 mm 19.5 °C 20 °C 19.6 °C 19 °C 20000 m 0 cm 0 min 0 W/m² 1013.5 hPa
01:00 17.2 °C 13.9 °C 81 % 15 km/h (25 km/h) 0 mm0 mm 19.5 °C 20 °C 19.6 °C 19 °C 20000 m 0 cm 0 min 0 W/m² 1013.5 hPa
00:54 17.2 °C 14.1 °C 82 % 14 km/h (25 km/h) 0 mm0 mm 19.6 °C 20 °C 19.6 °C 19 °C 20000 m 0 cm 0 min 0 W/m² 1013.5 hPa
00:48 17.1 °C 14.2 °C 83 % 12 km/h (19 km/h) 0 mm0 mm 19.6 °C 20 °C 19.5 °C 19 °C 20000 m 0 cm 0 min 0 W/m² 1013.5 hPa
00:42 17.1 °C 14 °C 82 % 12 km/h (20 km/h) 0 mm0 mm 19.6 °C 20 °C 19.6 °C 19 °C 20000 m 0 cm 0 min 0 W/m² 1013.5 hPa
00:36 17.3 °C 14.2 °C 82 % 10 km/h (17 km/h) 0 mm0 mm 19.7 °C 20 °C 19.6 °C 19 °C 20000 m 0 cm 0 min 0 W/m² 1013.5 hPa
00:30 17.3 °C 14.2 °C 82 % 10 km/h (18 km/h) 0 mm0 mm 19.6 °C 20 °C 19.6 °C 19 °C 20000 m 0 cm 0 min 0 W/m² 1013.5 hPa
00:24 17.3 °C 14.2 °C 82 % 11 km/h (18 km/h) 0 mm0 mm 19.7 °C 20.1 °C 19.6 °C 19 °C 20000 m 0 cm 0 min 0 W/m² 1013.5 hPa
00:18 17.3 °C 14.2 °C 82 % 11 km/h (18 km/h) 0 mm0 mm 19.7 °C 20.1 °C 19.5 °C 19 °C 20000 m 0 cm 0 min 0 W/m² 1013.4 hPa
00:12 17.4 °C 14.5 °C 83 % 10 km/h (16 km/h) 0 mm0 mm 19.7 °C 20.1 °C 19.5 °C 19 °C 20000 m 0 cm 0 min 0 W/m² 1013.3 hPa
00:06 17.4 °C 14.3 °C 82 % 11 km/h (20 km/h) 0 mm0 mm 19.8 °C 20.1 °C 19.5 °C 19 °C 20000 m 0 cm 0 min 0 W/m² 1013.3 hPa
00:00 17.6 °C 14.3 °C 81 % 12 km/h (20 km/h) 0 mm0 mm 19.8 °C 20.1 °C 19.6 °C 19 °C 20000 m 0 cm 0 min 0 W/m² 1013.4 hPa

Données via Météo-France

Relevés météo à Trappes

Cette page rassemble les observations de la station de Trappes : température, humidité, vent, précipitations et pression atmosphérique. Les graphiques facilitent le suivi de la journée, tandis que le tableau donne accès aux mesures horaires et infra-horaires disponibles.

Pour replacer ces mesures dans leur contexte, consultez la climatologie de Trappes ainsi que ses normales et records. Retrouvez aussi la carte des observations météo en temps réel.